Time;durP1;ratioP1;P1;durP2;ratioP2;P2;SDS_P1;SDS_P2;PMS_P1;PMS_P2;Temp;Humidity;BMP_temperature;BMP_pressure;BME280_temperature;BME280_humidity;BME280_pressure;Samples;Min_cycle;Max_cycle;Signal;HPM_P1;HPM_P2
2022/08/21 00:00:16;;;;;;;14.97;4.80;;;16.60;2.10;;;;;;5074878;28;20212;-60
2022/08/21 00:02:49;;;;;;;8.30;4.63;;;16.60;3.40;;;;;;5074844;28;20889;-59
2022/08/21 00:05:17;;;;;;;7.23;4.60;;;16.60;3.80;;;;;;5074857;28;20744;-60
2022/08/21 00:07:44;;;;;;;9.67;4.10;;;16.50;4.90;;;;;;5074421;28;20350;-60
2022/08/21 00:10:11;;;;;;;10.70;4.87;;;16.50;8.00;;;;;;5074689;28;20266;-59
2022/08/21 00:12:38;;;;;;;8.93;4.70;;;16.50;9.50;;;;;;5074797;28;20233;-60
2022/08/21 00:15:07;;;;;;;8.43;4.80;;;16.60;11.50;;;;;;5074810;28;20258;-60
2022/08/21 00:17:34;;;;;;;6.47;4.10;;;16.50;10.50;;;;;;5074488;28;20201;-60
2022/08/21 00:20:03;;;;;;;8.27;4.83;;;16.50;11.70;;;;;;5074324;28;20220;-61
2022/08/21 00:22:30;;;;;;;12.33;4.60;;;16.50;12.30;;;;;;5074394;28;20260;-60
2022/08/21 00:24:57;;;;;;;8.57;4.30;;;16.50;13.90;;;;;;5074533;28;20262;-60
2022/08/21 00:27:24;;;;;;;7.27;4.30;;;16.50;13.20;;;;;;5074290;28;20664;-59
2022/08/21 00:29:53;;;;;;;8.23;4.20;;;16.40;10.20;;;;;;5074431;28;20266;-60
2022/08/21 00:32:22;;;;;;;17.83;4.47;;;16.40;11.70;;;;;;5074310;28;20229;-60
2022/08/21 00:34:48;;;;;;;10.53;4.53;;;16.30;15.30;;;;;;5074436;28;20209;-60
2022/08/21 00:37:17;;;;;;;6.77;4.17;;;16.20;22.20;;;;;;5074193;28;20729;-60
2022/08/21 00:39:43;;;;;;;5.57;4.20;;;16.10;28.40;;;;;;5074578;28;20204;-60
2022/08/21 00:42:14;;;;;;;8.00;4.57;;;16.10;29.30;;;;;;5074091;28;20228;-60
2022/08/21 00:44:41;;;;;;;11.37;4.90;;;16.00;35.70;;;;;;5074212;28;20204;-60
2022/08/21 00:47:08;;;;;;;11.37;4.30;;;16.00;38.70;;;;;;5073892;28;20646;-60
2022/08/21 00:49:35;;;;;;;6.77;4.13;;;16.00;44.40;;;;;;5074342;28;20291;-60
2022/08/21 00:52:02;;;;;;;9.10;4.73;;;16.00;52.00;;;;;;5073803;28;20209;-59
2022/08/21 00:54:32;;;;;;;10.57;4.63;;;15.90;56.10;;;;;;5074058;28;20205;-60
2022/08/21 00:57:02;;;;;;;12.07;4.83;;;15.90;63.00;;;;;;5073522;28;20609;-59
2022/08/21 00:59:33;;;;;;;12.47;5.03;;;15.90;72.70;;;;;;5073594;28;20258;-61
2022/08/21 01:02:00;;;;;;;10.70;4.83;;;15.90;83.40;;;;;;5073614;28;20205;-59
2022/08/21 01:04:27;;;;;;;11.13;4.73;;;15.80;93.70;;;;;;5073690;28;20205;-60
2022/08/21 01:06:54;;;;;;;9.07;4.47;;;15.80;99.90;;;;;;5073417;28;20358;-57
2022/08/21 01:09:21;;;;;;;11.37;4.90;;;15.80;99.90;;;;;;5073453;28;20205;-60
2022/08/21 01:11:50;;;;;;;9.33;4.90;;;15.80;99.90;;;;;;5073452;28;20205;-59
2022/08/21 01:14:18;;;;;;;11.33;5.43;;;15.80;99.90;;;;;;5073523;28;20209;-60
2022/08/21 01:16:50;;;;;;;12.50;5.57;;;15.80;99.90;;;;;;5072873;28;20236;-60
2022/08/21 01:19:18;;;;;;;8.60;5.27;;;15.80;99.90;;;;;;5073297;28;20258;-60
2022/08/21 01:21:46;;;;;;;10.20;4.83;;;15.80;99.90;;;;;;5073308;28;20258;-60
2022/08/21 01:24:15;;;;;;;8.63;4.70;;;15.80;99.90;;;;;;5073564;28;20209;-60
2022/08/21 01:26:43;;;;;;;8.33;5.20;;;15.80;99.90;;;;;;5072521;28;20229;-59
2022/08/21 01:29:15;;;;;;;10.90;6.00;;;15.80;99.90;;;;;;5073130;28;20208;-60
2022/08/21 01:31:42;;;;;;;10.00;4.67;;;15.90;99.90;;;;;;5073363;28;20213;-60
2022/08/21 01:34:09;;;;;;;9.90;4.17;;;15.90;99.90;;;;;;5073175;28;20226;-60
2022/08/21 01:36:36;;;;;;;7.60;4.47;;;16.00;99.90;;;;;;5072992;28;20242;-60
2022/08/21 01:39:06;;;;;;;11.47;4.87;;;16.00;99.90;;;;;;5073539;28;20259;-60
2022/08/21 01:41:33;;;;;;;7.43;4.30;;;16.00;99.90;;;;;;5073069;28;20671;-60
2022/08/21 01:44:00;;;;;;;7.33;4.10;;;16.00;99.90;;;;;;5072684;28;20714;-60
2022/08/21 01:46:27;;;;;;;9.83;4.50;;;16.00;99.90;;;;;;5072782;28;20220;-60
2022/08/21 01:48:54;;;;;;;11.13;4.90;;;16.00;99.00;;;;;;5072914;28;20209;-59
2022/08/21 01:51:20;;;;;;;10.27;4.53;;;16.00;95.30;;;;;;5072699;28;20726;-60
2022/08/21 01:53:47;;;;;;;7.90;4.07;;;15.90;92.50;;;;;;5072572;28;20581;-60
2022/08/21 01:56:17;;;;;;;8.07;4.73;;;15.90;90.20;;;;;;5072545;28;20251;-60
2022/08/21 01:58:46;;;;;;;7.57;5.00;;;15.90;86.20;;;;;;5072436;28;20201;-59
2022/08/21 02:01:13;;;;;;;7.10;4.40;;;15.90;81.60;;;;;;5072919;28;20209;-60
2022/08/21 02:03:40;;;;;;;10.03;4.60;;;15.80;74.20;;;;;;5072624;28;20225;-60
2022/08/21 02:06:08;;;;;;;6.33;4.23;;;15.70;72.40;;;;;;5072321;28;20671;-60
2022/08/21 02:08:35;;;;;;;12.17;4.97;;;15.70;73.50;;;;;;5072286;28;20208;-60
2022/08/21 02:11:02;;;;;;;10.43;5.23;;;15.70;78.10;;;;;;5072571;28;20205;-61
2022/08/21 02:13:30;;;;;;;11.80;4.73;;;15.60;80.80;;;;;;5072423;28;20235;-60
2022/08/21 02:15:57;;;;;;;9.60;4.60;;;15.60;80.20;;;;;;5072184;28;20267;-61
2022/08/21 02:18:23;;;;;;;9.93;4.63;;;15.60;77.90;;;;;;5072194;28;20209;-59
2022/08/21 02:20:51;;;;;;;8.57;5.10;;;15.50;81.00;;;;;;5072225;28;20629;-60
2022/08/21 02:23:18;;;;;;;8.73;5.17;;;15.50;84.40;;;;;;5072089;28;20229;-60
2022/08/21 02:25:45;;;;;;;9.80;5.10;;;15.50;89.10;;;;;;5072012;28;20262;-60
2022/08/21 02:28:14;;;;;;;9.47;4.93;;;15.40;92.50;;;;;;5071868;28;20260;-59
2022/08/21 02:30:46;;;;;;;8.27;5.50;;;15.30;92.50;;;;;;5072270;28;20243;-59
2022/08/21 02:33:14;;;;;;;10.20;5.00;;;15.40;95.50;;;;;;5072022;28;20224;-59
2022/08/21 02:35:42;;;;;;;10.93;5.30;;;15.30;99.20;;;;;;5072028;28;20215;-59
2022/08/21 02:38:12;;;;;;;13.23;5.23;;;15.30;99.90;;;;;;5070858;28;20205;-60
2022/08/21 02:40:41;;;;;;;10.87;5.13;;;15.30;99.90;;;;;;5072199;28;20215;-60
2022/08/21 02:43:09;;;;;;;8.07;4.87;;;15.20;99.90;;;;;;5072084;28;20637;-59
2022/08/21 02:45:37;;;;;;;9.30;5.00;;;15.10;99.90;;;;;;5071937;28;20213;-60
2022/08/21 02:48:08;;;;;;;11.60;5.50;;;15.10;99.90;;;;;;5071639;28;20220;-59
2022/08/21 02:50:43;;;;;;;9.33;5.20;;;15.10;99.90;;;;;;5071828;28;20212;-60
2022/08/21 02:53:14;;;;;;;14.33;5.90;;;15.10;99.90;;;;;;5073528;28;20228;-61
2022/08/21 02:55:40;;;;;;;8.03;5.70;;;15.10;99.90;;;;;;5073498;28;20595;-60
2022/08/21 02:58:08;;;;;;;11.87;5.77;;;15.10;99.90;;;;;;5073164;28;20209;-60
2022/08/21 03:00:36;;;;;;;9.80;5.10;;;15.10;99.90;;;;;;5072138;28;20620;-59
2022/08/21 03:03:05;;;;;;;10.83;5.30;;;15.00;99.90;;;;;;5071536;28;20278;-60
2022/08/21 03:05:34;;;;;;;12.90;6.20;;;15.00;99.90;;;;;;5071861;28;20201;-60
2022/08/21 03:08:03;;;;;;;8.77;5.50;;;15.00;99.90;;;;;;5071408;28;20711;-60
2022/08/21 03:10:31;;;;;;;10.60;5.03;;;15.00;99.90;;;;;;5071582;28;20209;-60
2022/08/21 03:12:58;;;;;;;9.93;5.20;;;15.00;99.90;;;;;;5071516;28;20311;-60
2022/08/21 03:15:25;;;;;;;9.83;5.63;;;15.00;99.90;;;;;;5071598;28;20675;-61
2022/08/21 03:17:54;;;;;;;13.57;6.00;;;15.00;99.90;;;;;;5071420;28;20200;-61
2022/08/21 03:20:24;;;;;;;14.50;6.20;;;15.00;99.90;;;;;;5071459;28;20216;-61
2022/08/21 03:22:51;;;;;;;14.37;5.93;;;14.90;99.90;;;;;;5071641;28;20627;-60
2022/08/21 03:25:18;;;;;;;11.50;6.20;;;15.00;99.90;;;;;;5071547;28;20645;-60
2022/08/21 03:27:45;;;;;;;12.07;5.67;;;15.00;99.90;;;;;;5071120;28;20251;-60
2022/08/21 03:30:13;;;;;;;8.67;6.23;;;15.00;99.90;;;;;;5071425;28;20630;-60
2022/08/21 03:32:40;;;;;;;10.47;6.07;;;15.00;99.90;;;;;;5071279;28;20310;-60
2022/08/21 03:35:08;;;;;;;14.60;6.10;;;15.00;99.90;;;;;;5071819;28;20574;-61
2022/08/21 03:37:36;;;;;;;11.13;6.03;;;15.00;99.90;;;;;;5071623;28;20201;-60
2022/08/21 03:40:04;;;;;;;9.17;5.60;;;15.00;99.90;;;;;;5071488;28;20208;-61
2022/08/21 03:42:31;;;;;;;15.13;6.77;;;15.00;99.90;;;;;;5071156;28;20229;-60
2022/08/21 03:44:57;;;;;;;11.63;5.70;;;15.00;99.90;;;;;;5071311;28;20205;-61
2022/08/21 03:47:25;;;;;;;10.03;6.10;;;15.00;99.90;;;;;;5071091;28;20280;-61
2022/08/21 03:49:52;;;;;;;10.80;5.53;;;15.00;99.90;;;;;;5074741;28;20209;-60
2022/08/21 03:52:19;;;;;;;13.37;6.13;;;14.90;99.90;;;;;;5074749;28;20715;-61
2022/08/21 03:54:47;;;;;;;10.10;5.77;;;14.90;99.90;;;;;;5075068;28;20205;-61
2022/08/21 03:57:14;;;;;;;10.67;5.40;;;14.90;99.90;;;;;;5074443;28;20258;-61
2022/08/21 03:59:42;;;;;;;10.63;5.87;;;14.90;99.90;;;;;;5075056;28;20209;-58
2022/08/21 04:02:09;;;;;;;12.43;5.57;;;14.90;99.90;;;;;;5074786;28;20630;-59
2022/08/21 04:04:36;;;;;;;9.30;5.13;;;14.80;99.90;;;;;;5075016;28;20623;-59
2022/08/21 04:07:04;;;;;;;8.70;5.40;;;14.80;99.90;;;;;;5074518;28;20205;-59
2022/08/21 04:09:31;;;;;;;10.00;5.13;;;14.80;99.90;;;;;;5074924;28;20258;-60
2022/08/21 04:11:59;;;;;;;11.67;5.30;;;14.80;99.90;;;;;;5074494;28;20756;-60
2022/08/21 04:14:26;;;;;;;13.37;5.53;;;14.80;99.90;;;;;;5074604;28;20722;-61
2022/08/21 04:16:53;;;;;;;14.60;5.77;;;14.80;99.90;;;;;;5074377;28;20675;-60
2022/08/21 04:19:20;;;;;;;11.40;5.70;;;14.70;99.90;;;;;;5074514;28;20216;-60
2022/08/21 04:21:46;;;;;;;13.47;6.10;;;14.70;99.90;;;;;;5074596;28;20204;-59
2022/08/21 04:24:13;;;;;;;11.57;6.50;;;14.70;99.90;;;;;;5074542;28;20233;-60
2022/08/21 04:26:40;;;;;;;9.53;6.70;;;14.60;99.90;;;;;;5074519;28;20278;-60
2022/08/21 04:29:08;;;;;;;10.47;6.30;;;14.60;99.90;;;;;;5074409;28;20252;-59
2022/08/21 04:31:36;;;;;;;12.47;6.20;;;14.60;99.90;;;;;;5074359;28;20636;-60
2022/08/21 04:34:03;;;;;;;11.30;6.70;;;14.60;99.90;;;;;;5074051;28;20640;-60
2022/08/21 04:36:30;;;;;;;11.13;6.10;;;14.60;99.90;;;;;;5074219;28;20247;-60
2022/08/21 04:38:57;;;;;;;11.37;7.10;;;14.60;99.90;;;;;;5073750;28;20236;-61
2022/08/21 04:41:24;;;;;;;11.17;6.10;;;14.70;99.90;;;;;;5074428;28;20205;-60
2022/08/21 04:43:50;;;;;;;14.33;7.43;;;14.70;99.90;;;;;;5073890;28;20659;-60
2022/08/21 04:46:18;;;;;;;12.70;6.40;;;14.70;99.90;;;;;;5073814;28;20729;-60
2022/08/21 04:48:45;;;;;;;13.00;6.80;;;14.70;99.90;;;;;;5073949;28;20247;-60
2022/08/21 04:51:15;;;;;;;15.50;6.30;;;14.70;99.90;;;;;;5073917;28;20216;-60
2022/08/21 04:53:46;;;;;;;11.50;7.97;;;14.70;99.90;;;;;;5074188;28;20574;-60
2022/08/21 04:56:15;;;;;;;9.50;7.40;;;14.80;99.90;;;;;;5074017;28;20213;-60
2022/08/21 04:58:42;;;;;;;13.77;7.77;;;14.80;99.90;;;;;;5073822;28;20205;-60
2022/08/21 05:01:12;;;;;;;12.77;8.03;;;14.80;99.90;;;;;;5072647;28;20251;-60
2022/08/21 05:03:41;;;;;;;14.80;7.77;;;14.70;99.90;;;;;;5073672;28;20663;-61
2022/08/21 05:06:11;;;;;;;10.80;8.47;;;14.70;99.90;;;;;;5073458;28;20746;-60
2022/08/21 05:08:38;;;;;;;11.33;8.27;;;14.70;99.90;;;;;;5073612;28;20221;-60
2022/08/21 05:11:06;;;;;;;11.83;8.20;;;14.80;99.90;;;;;;5073662;28;20700;-61
2022/08/21 05:13:33;;;;;;;14.77;8.23;;;14.90;99.90;;;;;;5073306;28;20232;-60
2022/08/21 05:15:59;;;;;;;12.97;7.83;;;15.00;99.90;;;;;;5073272;28;20250;-60
2022/08/21 05:18:26;;;;;;;14.03;7.50;;;15.10;99.90;;;;;;5073487;28;20201;-60
2022/08/21 05:20:54;;;;;;;18.17;7.17;;;15.10;99.90;;;;;;5073322;28;20908;-60
2022/08/21 05:23:21;;;;;;;15.10;7.40;;;15.20;99.90;;;;;;5073585;28;20237;-61
2022/08/21 05:25:47;;;;;;;10.07;6.77;;;15.30;99.90;;;;;;5073237;28;20212;-60
2022/08/21 05:28:14;;;;;;;12.10;7.03;;;15.30;99.90;;;;;;5072992;28;20229;-60
2022/08/21 05:30:41;;;;;;;10.23;7.03;;;15.40;99.90;;;;;;5073233;28;20255;-60
2022/08/21 05:33:08;;;;;;;14.00;7.90;;;15.40;99.90;;;;;;5072895;28;20229;-61
2022/08/21 05:35:35;;;;;;;13.30;7.00;;;15.50;99.90;;;;;;5072917;28;20217;-60
2022/08/21 05:38:04;;;;;;;12.97;8.07;;;15.50;99.90;;;;;;5073121;28;20197;-63
2022/08/21 05:40:31;;;;;;;14.73;8.80;;;15.60;99.90;;;;;;5072813;28;20205;-64
2022/08/21 05:42:58;;;;;;;13.10;7.63;;;15.60;99.90;;;;;;5072956;28;20282;-64
2022/08/21 05:45:28;;;;;;;14.30;6.77;;;15.70;99.90;;;;;;5072817;28;20292;-64
2022/08/21 05:47:55;;;;;;;14.33;7.97;;;15.60;83.50;;;;;;5072478;28;20209;-64
2022/08/21 05:50:22;;;;;;;16.60;8.00;;;15.70;79.80;;;;;;5072888;28;20204;-64
2022/08/21 05:52:49;;;;;;;16.47;7.57;;;15.70;86.50;;;;;;5072766;28;20221;-64
2022/08/21 05:55:17;;;;;;;13.37;7.83;;;15.70;91.60;;;;;;5072705;28;20608;-63
2022/08/21 05:57:44;;;;;;;11.80;6.80;;;15.90;99.20;;;;;;5072716;28;20251;-63
2022/08/21 06:00:12;;;;;;;11.87;7.40;;;16.00;90.80;;;;;;5072790;28;20209;-63
2022/08/21 06:02:39;;;;;;;15.47;7.90;;;16.10;31.50;;;;;;5072453;28;20282;-63
2022/08/21 06:05:06;;;;;;;12.13;8.37;;;16.10;20.80;;;;;;5072971;28;20201;-62
2022/08/21 06:07:33;;;;;;;12.60;9.00;;;16.00;14.40;;;;;;5072271;28;20205;-62
2022/08/21 06:10:00;;;;;;;12.60;9.07;;;16.00;16.50;;;;;;5072581;28;20201;-63
2022/08/21 06:12:28;;;;;;;13.87;9.43;;;16.00;20.80;;;;;;5072494;28;20298;-63
2022/08/21 06:14:55;;;;;;;16.77;10.53;;;16.00;30.40;;;;;;5072803;28;20213;-63
2022/08/21 06:17:22;;;;;;;21.40;10.60;;;15.90;29.60;;;;;;5072655;28;20259;-62
2022/08/21 06:19:52;;;;;;;15.83;9.70;;;15.90;36.10;;;;;;5072205;28;20215;-63
2022/08/21 06:22:19;;;;;;;19.83;10.87;;;15.90;39.00;;;;;;5072039;28;20221;-62
2022/08/21 06:24:45;;;;;;;17.03;10.40;;;16.00;50.40;;;;;;5072175;28;20253;-62
2022/08/21 06:27:12;;;;;;;20.73;11.00;;;16.00;56.70;;;;;;5071837;28;20228;-63
2022/08/21 06:29:40;;;;;;;18.70;9.63;;;16.10;32.70;;;;;;5072061;28;20777;-62
2022/08/21 06:32:08;;;;;;;21.67;11.43;;;16.20;30.40;;;;;;5072022;28;20742;-62
2022/08/21 06:34:37;;;;;;;16.23;10.70;;;16.30;12.10;;;;;;5072209;28;20204;-63
2022/08/21 06:37:04;;;;;;;20.43;10.90;;;16.40;7.20;;;;;;5071652;28;20205;-62
2022/08/21 06:39:31;;;;;;;19.90;11.07;;;16.50;1.00;;;;;;5071955;28;20205;-63
2022/08/21 06:41:57;;;;;;;17.33;11.27;;;16.50;1.00;;;;;;5072016;28;20721;-63
2022/08/21 06:44:24;;;;;;;16.57;10.83;;;16.60;1.00;;;;;;5072147;28;20212;-63
2022/08/21 06:46:52;;;;;;;17.17;11.33;;;16.60;1.00;;;;;;5072027;28;20209;-63
2022/08/21 06:49:19;;;;;;;16.77;11.37;;;16.70;1.00;;;;;;5071893;28;20272;-62
2022/08/21 06:51:46;;;;;;;17.70;10.53;;;16.90;1.00;;;;;;5071762;28;20205;-65
2022/08/21 06:54:12;;;;;;;16.47;10.30;;;17.00;1.00;;;;;;5071722;28;20306;-65
2022/08/21 06:56:39;;;;;;;15.33;9.97;;;17.10;1.00;;;;;;5071627;28;20289;-65
2022/08/21 06:59:06;;;;;;;17.53;10.33;;;17.20;1.00;;;;;;5071993;28;20262;-65
2022/08/21 07:01:33;;;;;;;21.43;11.30;;;17.30;1.00;;;;;;5071995;28;20205;-65
2022/08/21 07:04:01;;;;;;;20.37;11.30;;;17.30;1.00;;;;;;5071807;28;20224;-65
2022/08/21 07:06:28;;;;;;;18.60;10.57;;;17.40;1.00;;;;;;5071812;28;20668;-65
2022/08/21 07:08:55;;;;;;;11.60;9.67;;;17.50;1.00;;;;;;5071565;28;20632;-65
2022/08/21 07:11:24;;;;;;;17.60;10.40;;;17.60;1.00;;;;;;5072188;28;20209;-65
2022/08/21 07:13:52;;;;;;;16.53;10.30;;;17.60;1.00;;;;;;5071731;28;20224;-65
2022/08/21 07:16:19;;;;;;;18.53;10.43;;;17.80;1.00;;;;;;5071877;28;20216;-65
2022/08/21 07:18:46;;;;;;;15.20;9.63;;;17.80;1.00;;;;;;5071662;28;20254;-65
2022/08/21 07:21:14;;;;;;;17.23;8.97;;;17.90;1.00;;;;;;5071592;28;20220;-65
2022/08/21 07:23:42;;;;;;;18.27;9.50;;;18.00;1.00;;;;;;5072875;28;20233;-65
2022/08/21 07:26:10;;;;;;;13.20;9.27;;;18.20;1.00;;;;;;5075794;28;20207;-65
2022/08/21 07:28:37;;;;;;;17.33;9.30;;;18.30;1.00;;;;;;5075466;28;20582;-65
2022/08/21 07:31:05;;;;;;;16.50;8.73;;;18.50;1.00;;;;;;5075736;28;20565;-65
2022/08/21 07:33:34;;;;;;;13.77;8.20;;;18.60;1.00;;;;;;5075732;28;20663;-65
2022/08/21 07:36:01;;;;;;;16.30;7.33;;;18.70;1.00;;;;;;5075144;28;20211;-65
2022/08/21 07:38:29;;;;;;;14.73;7.73;;;18.80;99.90;;;;;;5075705;28;20201;-65
2022/08/21 07:40:58;;;;;;;8.67;6.40;;;18.90;99.90;;;;;;5075561;28;20208;-65
2022/08/21 07:43:25;;;;;;;10.50;5.80;;;19.10;99.90;;;;;;5075491;28;20257;-65
2022/08/21 07:45:53;;;;;;;12.73;6.80;;;19.20;29.40;;;;;;5075290;28;20251;-65
2022/08/21 07:48:20;;;;;;;12.17;5.63;;;19.30;99.90;;;;;;5075814;28;20225;-65
2022/08/21 07:50:47;;;;;;;9.13;4.07;;;19.40;99.90;;;;;;5075646;28;20209;-65
2022/08/21 07:53:14;;;;;;;9.77;4.13;;;19.50;1.00;;;;;;5075410;28;20370;-65
2022/08/21 07:55:42;;;;;;;6.20;3.97;;;19.50;48.60;;;;;;5075304;28;20213;-64
2022/08/21 07:58:09;;;;;;;7.83;4.00;;;19.50;99.90;;;;;;5074861;28;20258;-65
2022/08/21 08:00:36;;;;;;;9.40;3.20;;;19.60;1.00;;;;;;5074910;28;20552;-65
2022/08/21 08:03:03;;;;;;;8.90;3.20;;;19.70;99.90;;;;;;5074725;28;20776;-65
2022/08/21 08:05:31;;;;;;;7.43;2.77;;;19.80;99.90;;;;;;5075018;28;20207;-65
2022/08/21 08:07:58;;;;;;;6.20;2.90;;;19.90;99.90;;;;;;5074632;28;20204;-65
2022/08/21 08:10:26;;;;;;;7.47;2.87;;;20.00;98.50;;;;;;5074578;28;20335;-65
2022/08/21 08:12:55;;;;;;;9.20;3.10;;;20.20;99.90;;;;;;5074769;28;20295;-65
2022/08/21 08:15:25;;;;;;;5.13;2.53;;;20.20;1.00;;;;;;5074727;28;20211;-65
2022/08/21 08:17:52;;;;;;;6.20;2.57;;;20.30;1.00;;;;;;5074241;28;20295;-65
2022/08/21 08:20:20;;;;;;;5.00;2.50;;;20.40;1.00;;;;;;5074540;28;20209;-65
2022/08/21 08:22:47;;;;;;;8.23;2.80;;;20.40;99.90;;;;;;5074530;28;20625;-65
2022/08/21 08:25:15;;;;;;;7.10;2.47;;;20.50;99.90;;;;;;5074790;28;20212;-65
2022/08/21 08:27:42;;;;;;;9.10;2.83;;;20.60;99.90;;;;;;5074117;28;20205;-65
2022/08/21 08:30:13;;;;;;;9.20;2.27;;;20.70;99.90;;;;;;5074331;28;20311;-65
2022/08/21 08:32:41;;;;;;;6.73;2.03;;;20.80;99.90;;;;;;5074381;28;20224;-65
2022/08/21 08:35:10;;;;;;;4.47;2.27;;;20.80;99.90;;;;;;5073127;28;20213;-65
2022/08/21 08:37:39;;;;;;;6.87;2.77;;;21.00;99.90;;;;;;5073940;28;20618;-65
2022/08/21 08:40:07;;;;;;;6.77;2.60;;;21.00;99.90;;;;;;5074382;28;20204;-65
2022/08/21 08:42:36;;;;;;;5.50;2.30;;;21.20;99.90;;;;;;5073986;28;20315;-65
2022/08/21 08:45:06;;;;;;;8.37;3.20;;;21.30;99.90;;;;;;5074371;28;20223;-65
2022/08/21 08:47:38;;;;;;;6.77;2.60;;;21.20;99.90;;;;;;5074106;28;20209;-65
2022/08/21 08:50:09;;;;;;;6.60;2.73;;;21.30;99.90;;;;;;5074076;28;20228;-65
2022/08/21 08:52:42;;;;;;;5.43;2.53;;;21.30;99.90;;;;;;5073840;28;20235;-65
2022/08/21 08:55:12;;;;;;;6.07;2.70;;;21.40;99.90;;;;;;5073972;28;20208;-65
2022/08/21 08:57:40;;;;;;;5.87;2.67;;;21.40;99.90;;;;;;5073638;28;20259;-65
2022/08/21 09:00:12;;;;;;;9.43;2.97;;;21.40;99.90;;;;;;5074119;28;20300;-65
2022/08/21 09:02:42;;;;;;;7.37;2.83;;;21.50;99.90;;;;;;5074814;28;20232;-65
2022/08/21 09:05:27;;;;;;;6.13;3.00;;;21.60;99.90;;;;;;5074290;28;20558;-65
2022/08/21 09:08:21;;;;;;;5.53;2.70;;;21.50;99.90;;;;;;5074318;28;20266;-65
2022/08/21 09:10:58;;;;;;;6.53;3.13;;;21.50;99.90;;;;;;5074423;28;20262;-65
2022/08/21 09:13:32;;;;;;;7.00;2.77;;;21.60;99.90;;;;;;5073690;28;20746;-65
2022/08/21 09:16:06;;;;;;;7.97;3.10;;;21.60;99.90;;;;;;5073721;28;20208;-65
2022/08/21 09:18:47;;;;;;;7.37;2.60;;;21.80;99.90;;;;;;5073293;28;20668;-65
2022/08/21 09:21:24;;;;;;;9.00;2.57;;;21.90;99.90;;;;;;5073438;28;20221;-65
2022/08/21 09:23:59;;;;;;;9.03;2.73;;;22.00;99.90;;;;;;5073406;28;20270;-64
2022/08/21 09:26:30;;;;;;;5.43;2.27;;;22.30;99.90;;;;;;5072985;28;20219;-65
2022/08/21 09:29:00;;;;;;;4.83;2.30;;;22.30;99.90;;;;;;5073439;28;20225;-65
2022/08/21 09:31:30;;;;;;;3.97;2.03;;;22.30;99.90;;;;;;5073703;28;20216;-68
2022/08/21 09:34:04;;;;;;;8.53;2.40;;;21.90;99.90;;;;;;5063349;28;20225;-63
2022/08/21 09:36:39;;;;;;;6.57;2.43;;;21.90;99.90;;;;;;5071044;28;20212;-63
2022/08/21 09:39:07;;;;;;;5.93;2.57;;;21.90;99.90;;;;;;5072310;28;20239;-63
2022/08/21 09:41:36;;;;;;;5.20;1.80;;;22.00;99.90;;;;;;5072020;28;20292;-63
2022/08/21 09:44:03;;;;;;;6.87;2.20;;;22.20;99.90;;;;;;5072555;28;20225;-63
2022/08/21 09:46:31;;;;;;;8.57;2.03;;;22.00;99.90;;;;;;5071858;28;20201;-63
2022/08/21 09:48:59;;;;;;;8.63;2.50;;;22.10;99.90;;;;;;5072334;28;20698;-63
2022/08/21 09:51:30;;;;;;;8.67;2.90;;;22.10;99.90;;;;;;5072138;28;20201;-63
2022/08/21 09:54:10;;;;;;;5.23;2.30;;;22.00;99.90;;;;;;5072405;28;20819;-62
2022/08/21 09:59:30;;;;;;;7.50;1.77;;;22.10;99.90;;;;;;5069411;28;20208;-63
2022/08/21 10:01:58;;;;;;;6.53;2.13;;;22.20;99.90;;;;;;5070218;28;20205;-63
2022/08/21 10:04:31;;;;;;;8.50;2.10;;;22.40;99.90;;;;;;5071979;28;20685;-65
2022/08/21 10:07:09;;;;;;;6.67;1.80;;;22.40;99.90;;;;;;5071489;28;20204;-63
2022/08/21 10:09:37;;;;;;;3.80;1.83;;;22.50;99.90;;;;;;5072374;28;20274;-62
2022/08/21 10:12:12;;;;;;;5.63;2.20;;;22.60;99.90;;;;;;5071829;28;20300;-62
2022/08/21 10:14:50;;;;;;;35.20;17.60;;;22.40;99.90;;;;;;5068401;28;20209;-61
2022/08/21 10:17:23;;;;;;;8.90;3.13;;;22.60;99.90;;;;;;5071263;28;20209;-62
2022/08/21 10:20:01;;;;;;;5.77;1.97;;;22.70;99.90;;;;;;5071472;28;20255;-62
2022/08/21 10:22:39;;;;;;;4.50;1.60;;;22.80;99.90;;;;;;5071028;28;20286;-62
2022/08/21 10:25:17;;;;;;;5.57;2.00;;;22.80;99.90;;;;;;5071390;28;20213;-61
2022/08/21 10:27:57;;;;;;;7.60;1.53;;;22.90;99.90;;;;;;5071514;28;20208;-63
2022/08/21 10:30:35;;;;;;;6.93;1.70;;;22.90;99.90;;;;;;5071705;28;20236;-62
2022/08/21 10:33:28;;;;;;;3.67;1.33;;;23.10;99.90;;;;;;5071385;28;20599;-62
2022/08/21 10:36:01;;;;;;;3.13;1.40;;;23.20;99.90;;;;;;5071541;28;20593;-62
2022/08/21 10:38:52;;;;;;;5.00;1.80;;;23.20;99.90;;;;;;5071671;28;20215;-62
2022/08/21 10:41:29;;;;;;;7.30;2.00;;;23.30;99.90;;;;;;5071372;28;20201;-62
2022/08/21 10:44:05;;;;;;;5.57;1.40;;;23.30;99.90;;;;;;5071120;28;20270;-64
2022/08/21 10:46:42;;;;;;;5.43;1.20;;;23.40;99.90;;;;;;5070828;28;20733;-64
2022/08/21 10:49:18;;;;;;;3.93;1.20;;;23.50;99.90;;;;;;5071263;28;20258;-65
2022/08/21 10:51:56;;;;;;;3.37;1.20;;;23.70;99.90;;;;;;5071214;28;20204;-65
2022/08/21 10:54:34;;;;;;;4.30;1.23;;;23.60;99.90;;;;;;5071702;28;20200;-65
2022/08/21 10:57:08;;;;;;;3.33;1.40;;;23.60;99.90;;;;;;5070999;28;20736;-66
2022/08/21 10:59:41;;;;;;;4.00;1.40;;;23.60;99.90;;;;;;5070844;28;20204;-65
2022/08/21 11:02:17;;;;;;;4.33;1.30;;;23.70;99.90;;;;;;5071095;28;20205;-65
2022/08/21 11:04:54;;;;;;;7.60;1.53;;;23.70;99.90;;;;;;5071269;28;20200;-65
2022/08/21 11:07:27;;;;;;;6.20;1.57;;;23.70;99.90;;;;;;5070762;28;20675;-65
2022/08/21 11:09:58;;;;;;;4.13;2.33;;;23.80;99.90;;;;;;5071214;28;20224;-65
2022/08/21 11:12:32;;;;;;;4.63;1.93;;;23.90;99.90;;;;;;5071189;28;20340;-64
2022/08/21 11:15:05;;;;;;;2.63;1.10;;;24.10;99.90;;;;;;5070787;28;20205;-64
2022/08/21 11:17:37;;;;;;;3.13;1.17;;;24.00;99.90;;;;;;5071271;28;20254;-64
2022/08/21 11:20:10;;;;;;;3.97;1.03;;;24.00;99.90;;;;;;5071254;28;20216;-64
2022/08/21 11:22:45;;;;;;;4.03;1.20;;;24.00;99.90;;;;;;5070817;28;20228;-63
2022/08/21 11:25:20;;;;;;;3.83;1.10;;;24.20;99.90;;;;;;5070607;28;20679;-63
2022/08/21 11:27:53;;;;;;;3.03;1.47;;;24.20;99.90;;;;;;5071043;28;20586;-63
2022/08/21 11:30:20;;;;;;;3.80;1.00;;;24.30;99.90;;;;;;5070607;28;20225;-63
2022/08/21 11:33:07;;;;;;;2.87;1.13;;;24.20;99.90;;;;;;5070947;28;20233;-63
2022/08/21 11:35:40;;;;;;;2.50;1.20;;;24.20;99.90;;;;;;5070253;28;20208;-63
2022/08/21 11:38:19;;;;;;;4.43;1.47;;;24.40;99.90;;;;;;5070984;28;20208;-63
2022/08/21 11:41:03;;;;;;;3.70;1.10;;;24.50;99.90;;;;;;5071018;28;20204;-63
2022/08/21 11:43:39;;;;;;;3.83;1.10;;;24.60;99.90;;;;;;5070821;28;20224;-63
2022/08/21 11:46:21;;;;;;;3.27;1.20;;;24.50;99.90;;;;;;5070129;28;20414;-63
2022/08/21 11:49:00;;;;;;;3.03;1.30;;;24.40;99.90;;;;;;5070639;28;20212;-63
2022/08/21 11:51:33;;;;;;;1.93;0.87;;;24.40;99.90;;;;;;5070815;28;20224;-63
2022/08/21 11:54:06;;;;;;;3.77;1.20;;;24.60;99.90;;;;;;5070480;28;20229;-67
2022/08/21 11:56:38;;;;;;;5.80;1.60;;;24.40;99.90;;;;;;5070550;28;20296;-63
2022/08/21 11:59:10;;;;;;;3.30;1.20;;;24.40;99.90;;;;;;5070417;28;20207;-65
2022/08/21 12:01:44;;;;;;;2.00;1.10;;;24.30;99.90;;;;;;5070680;28;20583;-66
2022/08/21 12:04:19;;;;;;;2.13;1.13;;;24.50;99.90;;;;;;5070584;28;20302;-68
2022/08/21 12:06:46;;;;;;;3.60;1.07;;;24.50;99.90;;;;;;5070478;28;20290;-66
2022/08/21 12:09:30;;;;;;;5.00;1.27;;;24.40;99.90;;;;;;5071608;28;20217;-65
2022/08/21 12:12:10;;;;;;;3.30;1.10;;;24.60;99.90;;;;;;5074220;28;20211;-65
2022/08/21 12:14:40;;;;;;;1.90;0.97;;;24.70;99.90;;;;;;5074008;28;20208;-65
2022/08/21 12:17:09;;;;;;;3.70;1.07;;;24.50;99.90;;;;;;5073573;28;20209;-65
2022/08/21 12:19:36;;;;;;;3.27;1.13;;;24.40;99.90;;;;;;5073985;28;20311;-65
2022/08/21 12:22:11;;;;;;;3.37;1.17;;;24.60;99.90;;;;;;5074038;28;20236;-65
2022/08/21 12:24:41;;;;;;;2.37;1.00;;;24.30;99.90;;;;;;5074029;28;20207;-65
2022/08/21 12:27:25;;;;;;;2.40;0.73;;;24.40;99.90;;;;;;5074028;28;20228;-66
2022/08/21 12:29:54;;;;;;;2.47;0.70;;;24.30;99.90;;;;;;5073811;28;20266;-64
2022/08/21 12:32:26;;;;;;;1.53;0.80;;;24.30;99.90;;;;;;5073786;28;20229;-64
2022/08/21 12:34:57;;;;;;;3.10;0.73;;;24.30;99.90;;;;;;5073564;28;20201;-64
2022/08/21 12:37:35;;;;;;;1.67;0.63;;;24.50;99.90;;;;;;5073440;28;20201;-63
2022/08/21 12:40:04;;;;;;;2.97;0.87;;;24.60;99.90;;;;;;5073841;28;20201;-62
2022/08/21 12:42:39;;;;;;;1.23;0.50;;;24.40;99.90;;;;;;5073627;28;20934;-62
2022/08/21 12:45:21;;;;;;;1.60;0.50;;;24.30;99.90;;;;;;5073489;28;20205;-62
2022/08/21 12:47:51;;;;;;;6.40;1.53;;;24.00;99.90;;;;;;5073617;28;20212;-62
2022/08/21 12:50:21;;;;;;;2.07;1.00;;;23.90;99.90;;;;;;5073449;28;20220;-62
2022/08/21 12:53:06;;;;;;;3.80;1.00;;;24.10;99.90;;;;;;5073867;28;20702;-63
2022/08/21 12:55:34;;;;;;;1.37;0.80;;;24.20;99.90;;;;;;5072875;28;20213;-62
2022/08/21 12:58:02;;;;;;;3.80;1.10;;;24.40;99.90;;;;;;5073303;28;20668;-63